sensor_id;sensor_type;location;lat;lon;timestamp;P1;durP1;ratioP1;P2;durP2;ratioP2
23743;SDS011;12052;53.478;10.182;2024-01-15T00:02:37;4.88;;;1.52;;
23743;SDS011;12052;53.478;10.182;2024-01-15T00:05:37;1.50;;;1.33;;
23743;SDS011;12052;53.478;10.182;2024-01-15T00:08:08;7.63;;;1.48;;
23743;SDS011;12052;53.478;10.182;2024-01-15T00:10:34;5.30;;;1.27;;
23743;SDS011;12052;53.478;10.182;2024-01-15T00:13:10;5.75;;;0.77;;
23743;SDS011;12052;53.478;10.182;2024-01-15T00:15:53;5.40;;;1.25;;
23743;SDS011;12052;53.478;10.182;2024-01-15T00:18:22;1.55;;;0.95;;
23743;SDS011;12052;53.478;10.182;2024-01-15T00:20:49;6.55;;;1.45;;
23743;SDS011;12052;53.478;10.182;2024-01-15T00:23:15;2.92;;;0.57;;
23743;SDS011;12052;53.478;10.182;2024-01-15T00:25:41;8.15;;;1.45;;
23743;SDS011;12052;53.478;10.182;2024-01-15T00:28:07;7.82;;;1.05;;
23743;SDS011;12052;53.478;10.182;2024-01-15T00:30:33;2.45;;;1.00;;
23743;SDS011;12052;53.478;10.182;2024-01-15T00:33:07;5.47;;;0.70;;
23743;SDS011;12052;53.478;10.182;2024-01-15T00:35:37;1.60;;;1.08;;
23743;SDS011;12052;53.478;10.182;2024-01-15T00:38:03;1.17;;;0.85;;
23743;SDS011;12052;53.478;10.182;2024-01-15T00:40:30;5.05;;;1.15;;
23743;SDS011;12052;53.478;10.182;2024-01-15T00:43:22;3.25;;;1.23;;
23743;SDS011;12052;53.478;10.182;2024-01-15T00:45:48;5.53;;;1.23;;
23743;SDS011;12052;53.478;10.182;2024-01-15T00:48:14;2.20;;;0.90;;
23743;SDS011;12052;53.478;10.182;2024-01-15T00:50:39;5.93;;;1.20;;
23743;SDS011;12052;53.478;10.182;2024-01-15T00:53:05;7.13;;;1.15;;
23743;SDS011;12052;53.478;10.182;2024-01-15T00:55:31;3.08;;;0.75;;
23743;SDS011;12052;53.478;10.182;2024-01-15T00:57:56;2.80;;;0.80;;
23743;SDS011;12052;53.478;10.182;2024-01-15T01:00:22;5.55;;;1.83;;
23743;SDS011;12052;53.478;10.182;2024-01-15T01:02:48;15.43;;;2.03;;
23743;SDS011;12052;53.478;10.182;2024-01-15T01:05:13;9.00;;;1.35;;
23743;SDS011;12052;53.478;10.182;2024-01-15T01:07:39;1.55;;;0.82;;
23743;SDS011;12052;53.478;10.182;2024-01-15T01:10:05;1.33;;;0.73;;
23743;SDS011;12052;53.478;10.182;2024-01-15T01:12:31;7.53;;;1.35;;
23743;SDS011;12052;53.478;10.182;2024-01-15T01:15:01;6.95;;;1.38;;
23743;SDS011;12052;53.478;10.182;2024-01-15T01:17:31;11.55;;;1.88;;
23743;SDS011;12052;53.478;10.182;2024-01-15T01:20:02;4.50;;;0.90;;
23743;SDS011;12052;53.478;10.182;2024-01-15T01:23:12;5.53;;;0.98;;
23743;SDS011;12052;53.478;10.182;2024-01-15T01:26:03;2.15;;;1.20;;
23743;SDS011;12052;53.478;10.182;2024-01-15T01:28:53;7.28;;;1.27;;
23743;SDS011;12052;53.478;10.182;2024-01-15T01:31:19;1.95;;;0.75;;
23743;SDS011;12052;53.478;10.182;2024-01-15T01:37:05;6.65;;;1.30;;
23743;SDS011;12052;53.478;10.182;2024-01-15T01:39:41;1.90;;;0.70;;
23743;SDS011;12052;53.478;10.182;2024-01-15T01:42:11;2.58;;;0.90;;
23743;SDS011;12052;53.478;10.182;2024-01-15T01:44:39;7.85;;;1.08;;
23743;SDS011;12052;53.478;10.182;2024-01-15T01:47:05;0.60;;;0.60;;
23743;SDS011;12052;53.478;10.182;2024-01-15T01:49:31;0.85;;;0.63;;
23743;SDS011;12052;53.478;10.182;2024-01-15T01:51:58;1.65;;;0.75;;
23743;SDS011;12052;53.478;10.182;2024-01-15T01:54:27;4.32;;;1.23;;
23743;SDS011;12052;53.478;10.182;2024-01-15T01:56:58;1.38;;;0.90;;
23743;SDS011;12052;53.478;10.182;2024-01-15T01:59:33;4.97;;;0.98;;
23743;SDS011;12052;53.478;10.182;2024-01-15T02:02:02;9.30;;;1.30;;
23743;SDS011;12052;53.478;10.182;2024-01-15T02:04:33;5.07;;;1.25;;
23743;SDS011;12052;53.478;10.182;2024-01-15T02:07:11;4.82;;;1.25;;
23743;SDS011;12052;53.478;10.182;2024-01-15T02:09:51;5.40;;;1.20;;
23743;SDS011;12052;53.478;10.182;2024-01-15T02:12:17;2.40;;;1.08;;
23743;SDS011;12052;53.478;10.182;2024-01-15T02:14:43;1.48;;;0.73;;
23743;SDS011;12052;53.478;10.182;2024-01-15T02:17:09;6.43;;;1.17;;
23743;SDS011;12052;53.478;10.182;2024-01-15T02:19:34;2.30;;;1.20;;
23743;SDS011;12052;53.478;10.182;2024-01-15T02:22:00;1.25;;;0.50;;
23743;SDS011;12052;53.478;10.182;2024-01-15T02:24:27;4.85;;;0.68;;
23743;SDS011;12052;53.478;10.182;2024-01-15T02:26:54;2.65;;;0.70;;
23743;SDS011;12052;53.478;10.182;2024-01-15T02:29:19;3.88;;;1.35;;
23743;SDS011;12052;53.478;10.182;2024-01-15T02:31:45;2.40;;;0.73;;
23743;SDS011;12052;53.478;10.182;2024-01-15T02:34:12;0.55;;;0.43;;
23743;SDS011;12052;53.478;10.182;2024-01-15T02:36:40;2.45;;;0.85;;
23743;SDS011;12052;53.478;10.182;2024-01-15T02:42:01;3.20;;;0.73;;
23743;SDS011;12052;53.478;10.182;2024-01-15T02:44:37;7.38;;;1.17;;
23743;SDS011;12052;53.478;10.182;2024-01-15T02:47:09;6.75;;;1.65;;
23743;SDS011;12052;53.478;10.182;2024-01-15T02:49:36;2.08;;;0.70;;
23743;SDS011;12052;53.478;10.182;2024-01-15T02:52:02;4.78;;;1.23;;
23743;SDS011;12052;53.478;10.182;2024-01-15T02:54:28;4.28;;;0.80;;
23743;SDS011;12052;53.478;10.182;2024-01-15T02:56:54;3.83;;;1.63;;
23743;SDS011;12052;53.478;10.182;2024-01-15T02:59:26;5.50;;;1.80;;
23743;SDS011;12052;53.478;10.182;2024-01-15T03:02:17;11.50;;;2.30;;
23743;SDS011;12052;53.478;10.182;2024-01-15T03:04:48;4.85;;;0.90;;
23743;SDS011;12052;53.478;10.182;2024-01-15T03:07:14;3.97;;;0.95;;
23743;SDS011;12052;53.478;10.182;2024-01-15T03:09:40;2.30;;;0.63;;
23743;SDS011;12052;53.478;10.182;2024-01-15T03:12:07;3.17;;;0.93;;
23743;SDS011;12052;53.478;10.182;2024-01-15T03:14:33;3.72;;;0.70;;
23743;SDS011;12052;53.478;10.182;2024-01-15T03:17:01;1.65;;;1.30;;
23743;SDS011;12052;53.478;10.182;2024-01-15T03:19:26;2.60;;;0.70;;
23743;SDS011;12052;53.478;10.182;2024-01-15T03:21:52;1.38;;;0.73;;
23743;SDS011;12052;53.478;10.182;2024-01-15T03:24:18;4.47;;;0.55;;
23743;SDS011;12052;53.478;10.182;2024-01-15T03:26:43;2.42;;;0.70;;
23743;SDS011;12052;53.478;10.182;2024-01-15T03:29:12;1.40;;;0.88;;
23743;SDS011;12052;53.478;10.182;2024-01-15T03:31:39;5.72;;;0.95;;
23743;SDS011;12052;53.478;10.182;2024-01-15T03:34:16;5.30;;;1.17;;
23743;SDS011;12052;53.478;10.182;2024-01-15T03:36:42;4.00;;;1.15;;
23743;SDS011;12052;53.478;10.182;2024-01-15T03:39:09;1.52;;;0.52;;
23743;SDS011;12052;53.478;10.182;2024-01-15T03:41:36;4.55;;;1.02;;
23743;SDS011;12052;53.478;10.182;2024-01-15T03:44:03;5.50;;;1.10;;
23743;SDS011;12052;53.478;10.182;2024-01-15T03:46:30;3.83;;;1.10;;
23743;SDS011;12052;53.478;10.182;2024-01-15T03:48:56;4.82;;;0.90;;
23743;SDS011;12052;53.478;10.182;2024-01-15T03:51:21;8.15;;;2.70;;
23743;SDS011;12052;53.478;10.182;2024-01-15T03:53:48;10.40;;;1.00;;
23743;SDS011;12052;53.478;10.182;2024-01-15T03:56:13;3.33;;;0.90;;
23743;SDS011;12052;53.478;10.182;2024-01-15T03:58:39;10.88;;;1.05;;
23743;SDS011;12052;53.478;10.182;2024-01-15T04:01:11;3.15;;;1.20;;
23743;SDS011;12052;53.478;10.182;2024-01-15T04:03:37;1.13;;;0.98;;
23743;SDS011;12052;53.478;10.182;2024-01-15T04:06:03;4.00;;;1.05;;
23743;SDS011;12052;53.478;10.182;2024-01-15T04:08:29;5.90;;;1.48;;
23743;SDS011;12052;53.478;10.182;2024-01-15T04:10:55;3.85;;;0.73;;
23743;SDS011;12052;53.478;10.182;2024-01-15T04:13:21;4.57;;;1.45;;
23743;SDS011;12052;53.478;10.182;2024-01-15T04:15:47;3.70;;;1.17;;
23743;SDS011;12052;53.478;10.182;2024-01-15T04:18:16;1.85;;;0.80;;
23743;SDS011;12052;53.478;10.182;2024-01-15T04:20:44;5.38;;;1.25;;
23743;SDS011;12052;53.478;10.182;2024-01-15T04:23:10;6.15;;;1.30;;
23743;SDS011;12052;53.478;10.182;2024-01-15T04:25:36;9.35;;;1.58;;
23743;SDS011;12052;53.478;10.182;2024-01-15T04:28:02;4.43;;;1.63;;
23743;SDS011;12052;53.478;10.182;2024-01-15T04:30:28;6.38;;;2.03;;
23743;SDS011;12052;53.478;10.182;2024-01-15T04:32:54;13.85;;;1.75;;
23743;SDS011;12052;53.478;10.182;2024-01-15T04:35:19;11.98;;;2.13;;
23743;SDS011;12052;53.478;10.182;2024-01-15T04:37:45;4.75;;;0.98;;
23743;SDS011;12052;53.478;10.182;2024-01-15T04:40:13;7.95;;;1.80;;
23743;SDS011;12052;53.478;10.182;2024-01-15T04:42:39;12.60;;;1.25;;
23743;SDS011;12052;53.478;10.182;2024-01-15T04:45:05;5.18;;;1.13;;
23743;SDS011;12052;53.478;10.182;2024-01-15T04:47:31;4.57;;;1.65;;
23743;SDS011;12052;53.478;10.182;2024-01-15T04:49:56;6.93;;;1.48;;
23743;SDS011;12052;53.478;10.182;2024-01-15T04:52:22;6.18;;;0.68;;
23743;SDS011;12052;53.478;10.182;2024-01-15T04:54:48;19.27;;;1.67;;
23743;SDS011;12052;53.478;10.182;2024-01-15T04:57:19;13.10;;;1.58;;
23743;SDS011;12052;53.478;10.182;2024-01-15T04:59:48;7.10;;;1.02;;
23743;SDS011;12052;53.478;10.182;2024-01-15T05:02:17;12.18;;;1.35;;
23743;SDS011;12052;53.478;10.182;2024-01-15T05:04:44;3.50;;;0.98;;
23743;SDS011;12052;53.478;10.182;2024-01-15T05:07:11;5.80;;;1.50;;
23743;SDS011;12052;53.478;10.182;2024-01-15T05:09:37;10.20;;;2.22;;
23743;SDS011;12052;53.478;10.182;2024-01-15T05:12:03;10.20;;;1.45;;
23743;SDS011;12052;53.478;10.182;2024-01-15T05:14:30;11.25;;;1.52;;
23743;SDS011;12052;53.478;10.182;2024-01-15T05:16:57;7.55;;;2.60;;
23743;SDS011;12052;53.478;10.182;2024-01-15T05:19:23;9.13;;;1.42;;
23743;SDS011;12052;53.478;10.182;2024-01-15T05:21:49;4.28;;;1.55;;
23743;SDS011;12052;53.478;10.182;2024-01-15T05:24:15;11.68;;;1.73;;
23743;SDS011;12052;53.478;10.182;2024-01-15T05:26:40;4.30;;;1.05;;
23743;SDS011;12052;53.478;10.182;2024-01-15T05:29:06;8.07;;;1.48;;
23743;SDS011;12052;53.478;10.182;2024-01-15T05:31:32;10.73;;;2.88;;
23743;SDS011;12052;53.478;10.182;2024-01-15T05:33:57;11.15;;;2.13;;
23743;SDS011;12052;53.478;10.182;2024-01-15T05:36:23;22.48;;;2.58;;
23743;SDS011;12052;53.478;10.182;2024-01-15T05:38:49;12.98;;;1.52;;
23743;SDS011;12052;53.478;10.182;2024-01-15T05:41:15;3.30;;;1.48;;
23743;SDS011;12052;53.478;10.182;2024-01-15T05:43:40;8.30;;;1.75;;
23743;SDS011;12052;53.478;10.182;2024-01-15T05:46:06;16.80;;;1.85;;
23743;SDS011;12052;53.478;10.182;2024-01-15T05:48:32;8.18;;;1.77;;
23743;SDS011;12052;53.478;10.182;2024-01-15T05:50:58;12.85;;;1.98;;
23743;SDS011;12052;53.478;10.182;2024-01-15T05:53:25;10.00;;;1.55;;
23743;SDS011;12052;53.478;10.182;2024-01-15T05:55:51;5.13;;;1.25;;
23743;SDS011;12052;53.478;10.182;2024-01-15T05:58:17;12.07;;;2.10;;
23743;SDS011;12052;53.478;10.182;2024-01-15T06:00:44;9.98;;;1.38;;
23743;SDS011;12052;53.478;10.182;2024-01-15T06:03:11;16.02;;;2.08;;
23743;SDS011;12052;53.478;10.182;2024-01-15T06:05:37;8.77;;;1.55;;
23743;SDS011;12052;53.478;10.182;2024-01-15T06:08:03;6.50;;;1.00;;
23743;SDS011;12052;53.478;10.182;2024-01-15T06:10:28;7.55;;;1.55;;
23743;SDS011;12052;53.478;10.182;2024-01-15T06:12:54;7.80;;;2.10;;
23743;SDS011;12052;53.478;10.182;2024-01-15T06:15:20;6.50;;;1.20;;
23743;SDS011;12052;53.478;10.182;2024-01-15T06:17:48;8.50;;;1.80;;
23743;SDS011;12052;53.478;10.182;2024-01-15T06:20:51;6.13;;;1.35;;
23743;SDS011;12052;53.478;10.182;2024-01-15T06:23:26;6.97;;;1.15;;
23743;SDS011;12052;53.478;10.182;2024-01-15T06:26:26;15.00;;;1.25;;
23743;SDS011;12052;53.478;10.182;2024-01-15T06:29:02;6.10;;;1.55;;
23743;SDS011;12052;53.478;10.182;2024-01-15T06:34:44;13.60;;;2.10;;
23743;SDS011;12052;53.478;10.182;2024-01-15T06:37:23;2.03;;;1.02;;
23743;SDS011;12052;53.478;10.182;2024-01-15T06:39:48;1.77;;;1.50;;
23743;SDS011;12052;53.478;10.182;2024-01-15T06:42:14;7.82;;;0.73;;
23743;SDS011;12052;53.478;10.182;2024-01-15T06:44:40;10.45;;;1.38;;
23743;SDS011;12052;53.478;10.182;2024-01-15T06:47:05;14.18;;;1.80;;
23743;SDS011;12052;53.478;10.182;2024-01-15T06:49:31;9.00;;;2.30;;
23743;SDS011;12052;53.478;10.182;2024-01-15T06:51:56;4.63;;;1.13;;
23743;SDS011;12052;53.478;10.182;2024-01-15T06:54:22;8.45;;;1.15;;
23743;SDS011;12052;53.478;10.182;2024-01-15T06:56:48;10.13;;;1.90;;
23743;SDS011;12052;53.478;10.182;2024-01-15T06:59:15;12.82;;;2.13;;
23743;SDS011;12052;53.478;10.182;2024-01-15T07:01:40;11.15;;;1.25;;
23743;SDS011;12052;53.478;10.182;2024-01-15T07:04:06;5.07;;;1.63;;
23743;SDS011;12052;53.478;10.182;2024-01-15T07:06:32;9.50;;;1.05;;
23743;SDS011;12052;53.478;10.182;2024-01-15T07:08:57;7.22;;;1.00;;
23743;SDS011;12052;53.478;10.182;2024-01-15T07:11:23;10.55;;;1.92;;
23743;SDS011;12052;53.478;10.182;2024-01-15T07:13:48;2.88;;;0.90;;
23743;SDS011;12052;53.478;10.182;2024-01-15T07:16:14;14.52;;;1.27;;
23743;SDS011;12052;53.478;10.182;2024-01-15T07:18:40;13.13;;;1.73;;
23743;SDS011;12052;53.478;10.182;2024-01-15T07:21:06;7.20;;;1.17;;
23743;SDS011;12052;53.478;10.182;2024-01-15T07:23:31;7.88;;;1.65;;
23743;SDS011;12052;53.478;10.182;2024-01-15T07:25:57;2.85;;;1.00;;
23743;SDS011;12052;53.478;10.182;2024-01-15T07:28:23;6.28;;;1.35;;
23743;SDS011;12052;53.478;10.182;2024-01-15T07:30:48;3.35;;;0.70;;
23743;SDS011;12052;53.478;10.182;2024-01-15T07:33:14;8.63;;;1.77;;
23743;SDS011;12052;53.478;10.182;2024-01-15T07:35:39;1.45;;;0.95;;
23743;SDS011;12052;53.478;10.182;2024-01-15T07:38:05;9.93;;;1.98;;
23743;SDS011;12052;53.478;10.182;2024-01-15T07:40:30;7.78;;;1.10;;
23743;SDS011;12052;53.478;10.182;2024-01-15T07:42:56;5.20;;;0.93;;
23743;SDS011;12052;53.478;10.182;2024-01-15T07:45:22;12.27;;;1.10;;
23743;SDS011;12052;53.478;10.182;2024-01-15T07:47:47;0.75;;;0.75;;
23743;SDS011;12052;53.478;10.182;2024-01-15T07:50:14;2.88;;;0.68;;
23743;SDS011;12052;53.478;10.182;2024-01-15T07:52:40;3.03;;;1.83;;
23743;SDS011;12052;53.478;10.182;2024-01-15T07:55:08;2.25;;;0.75;;
23743;SDS011;12052;53.478;10.182;2024-01-15T07:57:34;5.10;;;1.45;;
23743;SDS011;12052;53.478;10.182;2024-01-15T08:00:00;6.40;;;1.08;;
23743;SDS011;12052;53.478;10.182;2024-01-15T08:02:27;4.90;;;0.75;;
23743;SDS011;12052;53.478;10.182;2024-01-15T08:04:52;5.13;;;0.90;;
23743;SDS011;12052;53.478;10.182;2024-01-15T08:07:18;5.60;;;0.98;;
23743;SDS011;12052;53.478;10.182;2024-01-15T08:09:43;4.25;;;1.23;;
23743;SDS011;12052;53.478;10.182;2024-01-15T08:12:09;6.07;;;1.15;;
23743;SDS011;12052;53.478;10.182;2024-01-15T08:14:35;6.80;;;1.60;;
23743;SDS011;12052;53.478;10.182;2024-01-15T08:17:00;5.80;;;1.40;;
23743;SDS011;12052;53.478;10.182;2024-01-15T08:19:26;10.80;;;1.50;;
23743;SDS011;12052;53.478;10.182;2024-01-15T08:21:52;3.55;;;1.48;;
23743;SDS011;12052;53.478;10.182;2024-01-15T08:24:18;7.68;;;1.23;;
23743;SDS011;12052;53.478;10.182;2024-01-15T08:26:43;13.77;;;1.42;;
23743;SDS011;12052;53.478;10.182;2024-01-15T08:29:10;5.00;;;0.80;;
23743;SDS011;12052;53.478;10.182;2024-01-15T08:31:35;4.63;;;1.02;;
23743;SDS011;12052;53.478;10.182;2024-01-15T08:34:01;1.90;;;1.08;;
23743;SDS011;12052;53.478;10.182;2024-01-15T08:36:27;3.53;;;1.60;;
23743;SDS011;12052;53.478;10.182;2024-01-15T08:38:54;3.63;;;0.93;;
23743;SDS011;12052;53.478;10.182;2024-01-15T08:41:20;3.83;;;1.35;;
23743;SDS011;12052;53.478;10.182;2024-01-15T08:43:45;8.23;;;0.85;;
23743;SDS011;12052;53.478;10.182;2024-01-15T08:46:11;6.13;;;0.77;;
23743;SDS011;12052;53.478;10.182;2024-01-15T08:48:37;1.95;;;0.90;;
23743;SDS011;12052;53.478;10.182;2024-01-15T08:51:02;3.60;;;0.80;;
23743;SDS011;12052;53.478;10.182;2024-01-15T08:53:28;3.20;;;0.50;;
23743;SDS011;12052;53.478;10.182;2024-01-15T08:55:54;7.85;;;0.60;;
23743;SDS011;12052;53.478;10.182;2024-01-15T08:58:19;3.60;;;1.00;;
23743;SDS011;12052;53.478;10.182;2024-01-15T09:00:45;1.13;;;0.80;;
23743;SDS011;12052;53.478;10.182;2024-01-15T09:03:10;6.63;;;1.58;;
23743;SDS011;12052;53.478;10.182;2024-01-15T09:05:36;7.25;;;1.20;;
23743;SDS011;12052;53.478;10.182;2024-01-15T09:08:02;4.03;;;0.80;;
23743;SDS011;12052;53.478;10.182;2024-01-15T09:10:28;11.13;;;1.02;;
23743;SDS011;12052;53.478;10.182;2024-01-15T09:12:54;3.55;;;1.00;;
23743;SDS011;12052;53.478;10.182;2024-01-15T09:15:19;2.60;;;0.95;;
23743;SDS011;12052;53.478;10.182;2024-01-15T09:17:45;4.70;;;0.88;;
23743;SDS011;12052;53.478;10.182;2024-01-15T09:20:11;1.33;;;0.70;;
23743;SDS011;12052;53.478;10.182;2024-01-15T09:22:40;2.85;;;0.80;;
23743;SDS011;12052;53.478;10.182;2024-01-15T09:25:07;4.15;;;0.90;;
23743;SDS011;12052;53.478;10.182;2024-01-15T09:27:34;5.10;;;0.90;;
23743;SDS011;12052;53.478;10.182;2024-01-15T09:30:01;1.08;;;0.77;;
23743;SDS011;12052;53.478;10.182;2024-01-15T09:32:27;2.30;;;0.90;;
23743;SDS011;12052;53.478;10.182;2024-01-15T09:34:53;1.98;;;0.88;;
23743;SDS011;12052;53.478;10.182;2024-01-15T09:37:18;4.05;;;0.88;;
23743;SDS011;12052;53.478;10.182;2024-01-15T09:39:44;6.22;;;1.08;;
23743;SDS011;12052;53.478;10.182;2024-01-15T09:42:09;3.72;;;0.95;;
23743;SDS011;12052;53.478;10.182;2024-01-15T09:44:35;5.72;;;1.25;;
23743;SDS011;12052;53.478;10.182;2024-01-15T09:47:03;3.25;;;0.95;;
23743;SDS011;12052;53.478;10.182;2024-01-15T09:49:29;3.70;;;0.60;;
23743;SDS011;12052;53.478;10.182;2024-01-15T09:51:55;2.03;;;0.80;;
23743;SDS011;12052;53.478;10.182;2024-01-15T09:54:23;1.77;;;0.93;;
23743;SDS011;12052;53.478;10.182;2024-01-15T09:56:48;0.98;;;0.80;;
23743;SDS011;12052;53.478;10.182;2024-01-15T09:59:15;3.15;;;1.27;;
23743;SDS011;12052;53.478;10.182;2024-01-15T10:01:43;7.13;;;0.80;;
23743;SDS011;12052;53.478;10.182;2024-01-15T10:04:13;1.98;;;0.95;;
23743;SDS011;12052;53.478;10.182;2024-01-15T10:06:39;5.43;;;1.13;;
23743;SDS011;12052;53.478;10.182;2024-01-15T10:09:13;3.42;;;1.23;;
23743;SDS011;12052;53.478;10.182;2024-01-15T10:11:41;4.00;;;0.55;;
23743;SDS011;12052;53.478;10.182;2024-01-15T10:14:08;4.90;;;1.55;;
23743;SDS011;12052;53.478;10.182;2024-01-15T10:16:37;8.10;;;2.28;;
23743;SDS011;12052;53.478;10.182;2024-01-15T10:19:06;1.65;;;0.90;;
23743;SDS011;12052;53.478;10.182;2024-01-15T10:21:32;2.42;;;0.73;;
23743;SDS011;12052;53.478;10.182;2024-01-15T10:24:01;6.93;;;1.75;;
23743;SDS011;12052;53.478;10.182;2024-01-15T10:26:27;6.38;;;1.00;;
23743;SDS011;12052;53.478;10.182;2024-01-15T10:28:53;4.85;;;1.02;;
23743;SDS011;12052;53.478;10.182;2024-01-15T10:31:19;1.05;;;0.50;;
23743;SDS011;12052;53.478;10.182;2024-01-15T10:33:46;1.17;;;0.80;;
23743;SDS011;12052;53.478;10.182;2024-01-15T10:36:11;2.95;;;1.20;;
23743;SDS011;12052;53.478;10.182;2024-01-15T10:38:37;5.93;;;0.82;;
23743;SDS011;12052;53.478;10.182;2024-01-15T10:41:03;3.88;;;0.88;;
23743;SDS011;12052;53.478;10.182;2024-01-15T10:43:29;3.88;;;0.88;;
23743;SDS011;12052;53.478;10.182;2024-01-15T10:45:55;3.88;;;0.93;;
23743;SDS011;12052;53.478;10.182;2024-01-15T10:48:20;2.60;;;1.23;;
23743;SDS011;12052;53.478;10.182;2024-01-15T10:50:46;2.38;;;1.25;;
23743;SDS011;12052;53.478;10.182;2024-01-15T10:53:14;2.83;;;0.98;;
23743;SDS011;12052;53.478;10.182;2024-01-15T10:55:42;1.45;;;1.05;;
23743;SDS011;12052;53.478;10.182;2024-01-15T10:58:23;2.20;;;0.93;;
23743;SDS011;12052;53.478;10.182;2024-01-15T11:01:25;3.90;;;0.73;;
23743;SDS011;12052;53.478;10.182;2024-01-15T11:04:02;2.50;;;1.05;;
23743;SDS011;12052;53.478;10.182;2024-01-15T11:06:50;1.42;;;0.88;;
23743;SDS011;12052;53.478;10.182;2024-01-15T11:09:24;0.77;;;0.65;;
23743;SDS011;12052;53.478;10.182;2024-01-15T11:12:06;1.30;;;0.82;;
23743;SDS011;12052;53.478;10.182;2024-01-15T11:15:16;0.40;;;0.40;;
23743;SDS011;12052;53.478;10.182;2024-01-15T11:18:18;1.65;;;0.63;;
23743;SDS011;12052;53.478;10.182;2024-01-15T11:21:19;0.68;;;0.68;;
23743;SDS011;12052;53.478;10.182;2024-01-15T11:27:51;1.55;;;1.00;;
23743;SDS011;12052;53.478;10.182;2024-01-15T11:31:00;1.95;;;1.17;;
23743;SDS011;12052;53.478;10.182;2024-01-15T11:37:58;0.50;;;0.50;;
23743;SDS011;12052;53.478;10.182;2024-01-15T11:41:15;1.50;;;0.77;;
23743;SDS011;12052;53.478;10.182;2024-01-15T11:54:05;3.00;;;0.98;;
23743;SDS011;12052;53.478;10.182;2024-01-15T11:56:35;3.72;;;0.90;;
23743;SDS011;12052;53.478;10.182;2024-01-15T11:59:01;3.90;;;1.23;;
23743;SDS011;12052;53.478;10.182;2024-01-15T12:01:27;2.33;;;1.10;;
23743;SDS011;12052;53.478;10.182;2024-01-15T12:03:54;2.08;;;1.15;;
23743;SDS011;12052;53.478;10.182;2024-01-15T12:06:19;3.55;;;1.40;;
23743;SDS011;12052;53.478;10.182;2024-01-15T12:08:45;3.53;;;1.23;;
23743;SDS011;12052;53.478;10.182;2024-01-15T12:11:12;3.85;;;1.63;;
23743;SDS011;12052;53.478;10.182;2024-01-15T12:13:40;5.75;;;1.15;;
23743;SDS011;12052;53.478;10.182;2024-01-15T12:16:06;1.13;;;0.98;;
23743;SDS011;12052;53.478;10.182;2024-01-15T12:18:32;2.47;;;1.10;;
23743;SDS011;12052;53.478;10.182;2024-01-15T12:20:57;0.90;;;0.88;;
23743;SDS011;12052;53.478;10.182;2024-01-15T12:23:24;1.02;;;0.73;;
23743;SDS011;12052;53.478;10.182;2024-01-15T12:25:49;3.58;;;0.88;;
23743;SDS011;12052;53.478;10.182;2024-01-15T12:28:15;1.67;;;1.38;;
23743;SDS011;12052;53.478;10.182;2024-01-15T12:30:41;0.68;;;0.68;;
23743;SDS011;12052;53.478;10.182;2024-01-15T12:33:07;1.77;;;1.05;;
23743;SDS011;12052;53.478;10.182;2024-01-15T12:35:34;1.10;;;0.93;;
23743;SDS011;12052;53.478;10.182;2024-01-15T12:38:00;4.78;;;1.08;;
23743;SDS011;12052;53.478;10.182;2024-01-15T12:40:30;4.32;;;1.30;;
23743;SDS011;12052;53.478;10.182;2024-01-15T12:42:56;3.97;;;1.20;;
23743;SDS011;12052;53.478;10.182;2024-01-15T12:45:22;3.97;;;1.23;;
23743;SDS011;12052;53.478;10.182;2024-01-15T12:47:48;1.55;;;1.30;;
23743;SDS011;12052;53.478;10.182;2024-01-15T12:50:16;2.50;;;1.60;;
23743;SDS011;12052;53.478;10.182;2024-01-15T12:52:42;5.72;;;1.30;;
23743;SDS011;12052;53.478;10.182;2024-01-15T12:55:08;3.33;;;1.73;;
23743;SDS011;12052;53.478;10.182;2024-01-15T12:57:34;7.10;;;1.80;;
23743;SDS011;12052;53.478;10.182;2024-01-15T13:00:01;2.17;;;1.33;;
23743;SDS011;12052;53.478;10.182;2024-01-15T13:02:31;4.63;;;2.42;;
23743;SDS011;12052;53.478;10.182;2024-01-15T13:04:58;3.75;;;2.10;;
23743;SDS011;12052;53.478;10.182;2024-01-15T13:07:24;2.55;;;1.70;;
23743;SDS011;12052;53.478;10.182;2024-01-15T13:09:50;3.75;;;1.88;;
23743;SDS011;12052;53.478;10.182;2024-01-15T13:12:18;4.53;;;1.50;;
23743;SDS011;12052;53.478;10.182;2024-01-15T13:14:45;1.83;;;1.33;;
23743;SDS011;12052;53.478;10.182;2024-01-15T13:17:10;2.88;;;1.50;;
23743;SDS011;12052;53.478;10.182;2024-01-15T13:19:36;1.88;;;1.33;;
23743;SDS011;12052;53.478;10.182;2024-01-15T13:22:01;2.92;;;1.33;;
23743;SDS011;12052;53.478;10.182;2024-01-15T13:24:31;1.48;;;1.13;;
23743;SDS011;12052;53.478;10.182;2024-01-15T13:26:57;1.42;;;1.10;;
23743;SDS011;12052;53.478;10.182;2024-01-15T13:29:23;3.78;;;1.92;;
23743;SDS011;12052;53.478;10.182;2024-01-15T13:31:48;4.88;;;2.40;;
23743;SDS011;12052;53.478;10.182;2024-01-15T13:34:14;3.55;;;1.80;;
23743;SDS011;12052;53.478;10.182;2024-01-15T13:36:39;1.63;;;1.52;;
23743;SDS011;12052;53.478;10.182;2024-01-15T13:39:06;1.23;;;1.02;;
23743;SDS011;12052;53.478;10.182;2024-01-15T13:41:34;2.67;;;1.50;;
23743;SDS011;12052;53.478;10.182;2024-01-15T13:44:00;1.15;;;1.05;;
23743;SDS011;12052;53.478;10.182;2024-01-15T13:46:25;4.65;;;1.20;;
23743;SDS011;12052;53.478;10.182;2024-01-15T13:48:58;2.80;;;1.20;;
23743;SDS011;12052;53.478;10.182;2024-01-15T13:51:24;3.28;;;1.80;;
23743;SDS011;12052;53.478;10.182;2024-01-15T13:53:50;3.28;;;1.80;;
23743;SDS011;12052;53.478;10.182;2024-01-15T13:56:16;1.83;;;1.20;;
23743;SDS011;12052;53.478;10.182;2024-01-15T13:58:42;4.22;;;1.95;;
23743;SDS011;12052;53.478;10.182;2024-01-15T14:01:08;3.58;;;2.35;;
23743;SDS011;12052;53.478;10.182;2024-01-15T14:03:34;2.10;;;1.83;;
23743;SDS011;12052;53.478;10.182;2024-01-15T14:06:00;3.40;;;2.00;;
23743;SDS011;12052;53.478;10.182;2024-01-15T14:08:28;8.80;;;2.58;;
23743;SDS011;12052;53.478;10.182;2024-01-15T14:10:53;3.50;;;2.20;;
23743;SDS011;12052;53.478;10.182;2024-01-15T14:13:20;5.50;;;2.45;;
23743;SDS011;12052;53.478;10.182;2024-01-15T14:15:47;3.75;;;2.17;;
23743;SDS011;12052;53.478;10.182;2024-01-15T14:18:13;14.18;;;2.83;;
23743;SDS011;12052;53.478;10.182;2024-01-15T14:20:39;4.05;;;2.22;;
23743;SDS011;12052;53.478;10.182;2024-01-15T14:23:05;4.47;;;2.25;;
23743;SDS011;12052;53.478;10.182;2024-01-15T14:25:30;6.90;;;3.08;;
23743;SDS011;12052;53.478;10.182;2024-01-15T14:27:56;5.05;;;2.92;;
23743;SDS011;12052;53.478;10.182;2024-01-15T14:30:21;9.93;;;2.75;;
23743;SDS011;12052;53.478;10.182;2024-01-15T14:32:47;5.93;;;2.45;;
23743;SDS011;12052;53.478;10.182;2024-01-15T14:35:12;5.00;;;2.58;;
23743;SDS011;12052;53.478;10.182;2024-01-15T14:37:38;4.60;;;2.55;;
23743;SDS011;12052;53.478;10.182;2024-01-15T14:40:05;7.63;;;3.10;;
23743;SDS011;12052;53.478;10.182;2024-01-15T14:42:33;8.02;;;3.60;;
23743;SDS011;12052;53.478;10.182;2024-01-15T14:44:59;6.93;;;3.50;;
23743;SDS011;12052;53.478;10.182;2024-01-15T14:47:26;5.32;;;2.47;;
23743;SDS011;12052;53.478;10.182;2024-01-15T14:49:52;6.60;;;3.03;;
23743;SDS011;12052;53.478;10.182;2024-01-15T14:52:18;7.13;;;2.80;;
23743;SDS011;12052;53.478;10.182;2024-01-15T14:54:43;10.60;;;3.63;;
23743;SDS011;12052;53.478;10.182;2024-01-15T14:57:09;6.53;;;3.85;;
23743;SDS011;12052;53.478;10.182;2024-01-15T14:59:34;7.72;;;3.30;;
23743;SDS011;12052;53.478;10.182;2024-01-15T15:02:00;5.32;;;2.97;;
23743;SDS011;12052;53.478;10.182;2024-01-15T15:04:26;4.18;;;3.03;;
23743;SDS011;12052;53.478;10.182;2024-01-15T15:06:51;4.95;;;2.85;;
23743;SDS011;12052;53.478;10.182;2024-01-15T15:09:17;5.80;;;2.70;;